City's sites:

title views votes rating creation
?never been here 337 12 (3.08)  2010-02-07
?pastel negro 533 14 (2.50)  2010-02-07
?dizzy 245 8 (3.38)  2010-02-07
?two pictures from my desktop 813 16 (3.69)  2010-02-09
?broken clock realizes he is the last object left in the ... 369 10 (3.20)  2010-02-09
?heroes of old 542 19 (3.74)  2010-02-09
?mr. price 374 8 (3.25)  2010-02-09
?Music I Like - Part 1 551 10 (3.60)  2010-02-10
?Music I Like - Part 2 334 13 (3.54)  2010-02-10
?Music I Like - Part 3 486 13 (3.69)  2010-02-10
?Music I Like - Part 4 350 5 (3.20)  2010-02-10
?intense 468 9 (3.78)  2010-02-10
?oh SNAP 696 9 (3.22)  2010-02-10
?Music I Like - Part 5 482 9 (3.56)  2010-02-10
?SignlanguageTMND 324 14 (3.86)  2010-02-10
?lol internet (refresh) 509 6 (3.17)  2010-02-12
?Dumbeldore kills snape! 3,205 67 (4.03)  2010-02-12
?prairiedogeric10 tribute site 595 23 (3.96)  2010-02-13
?Legolewdite fan club 1,212 38 (3.87)  2010-02-13
?Connery retires 336 13 (3.85)  2010-02-13
?TOURNEY4: lol internet 501 7 (2.43)  2010-02-15
?Speed Deemon 892 23 (3.74)  2010-02-23
?Tribute: ASSCOCKredux 1,531 64 (3.91)  2010-02-23
?some light jazz with Robert De Niro 767 12 (3.50)  2010-02-23
?In What Language 1,390 34 (3.74)  2010-02-24
?go go go go go go go go go go go go go go go go ... 1,961 23 (3.74)  2010-02-24
?FEARCONDOM'S FAMILY Q U I L T 560 11 (3.55)  2010-02-24
?TEST 669 19 (3.84)  2010-02-26
?....someday, oh dream maker DUNANANANAN... 4,988 148 (3.96)  2010-02-28
?DOUGH FUNNIE HOMO DICKS 525 12 (3.58)  2010-03-01
?Using a concrete bricK 533 17 (3.82)  2010-03-01
?I had sex with a Kayan Tribe woman, little help plea... 800 11 (3.36)  2010-03-03
?Adventure 4 954 17 (3.65)  2010-03-03
?the standoff 409 9 (3.67)  2010-03-03
?alley children 480 11 (3.91)  2010-03-05
?Steven Seagal isn't impressed 9,702 180 (4.16)  2010-03-05
?Daunting Steps 211 7 (3.00)  2010-03-05
?Cruel and Unusual 6,050 163 (4.24)  2010-03-09
?DancehallTMND 412 10 (3.80)  2010-03-12
?FUCK OUT MY FACE 485 5 (2.60)  2010-03-18
?16, no dither 720 18 (3.94)  2010-03-20
?say hi to my girlfriend 891 16 (3.81)  2010-03-21
?TT 509 16 (3.88)  2010-03-23
?jimmm thinks about his next five 612 20 (3.80)  2010-03-24
?THE TELEKINETIC MAN 254 18 (3.50)  2010-03-25
?. 116 7 (2.71)  2010-03-26
?1! 295 17 (3.35)  2010-03-26
?Fake crocodile takes it to the limit one more time 586 9 (3.67)  2010-03-27
?croctheme 392 4 (3.25)  2010-03-27
?crocodile site 346 6 (3.50)  2010-03-27
?CROC MAKES A 187 LOOK EASY 171 6 (3.33)  2010-03-27
?New Croc SIte 155 5 (3.40)  2010-03-27
?L 298 19 (3.63)  2010-03-27
?crocodile sIte 213 10 (3.50)  2010-03-30
?Pleasant® 258 8 (3.38)  2010-03-30
?A Lovely Ride 217 13 (3.85)  2010-03-30
?It's glorious today 281 14 (3.64)  2010-04-01
?Na - Zu 385 10 (3.70)  2010-04-01
?WHO'NOWOWOWOW 407 5 (2.60)  2010-04-03
?part of your world 196 5 (3.00)  2010-04-04
?fff 170 4 (3.50)  2010-04-04
?FIve-star webiste 903 16 (1.94)  2010-04-04
?Captain Haddock 1,658 28 (3.86)  2010-04-04
?, 248 9 (3.33)  2010-04-05
?indnian 347 7 (2.71)  2010-04-05
?Ricky Manning tribute sIte will be Underway soon ! 197 3 (3.67)  2010-04-06
?Epic Domain Grab 189 6 (2.17)  2010-04-06
?retirement site 158 6 (2.83)  2010-04-06
?Paul newman doesn't drive a VAN 179 4 (3.00)  2010-04-06
?Vince McMan 307 7 (2.86)  2010-04-06
?LOL 274 5 (3.00)  2010-04-06
?wut 258 4 (2.75)  2010-04-06
?www.coachcarter.ytmnd.com 288 8 (1.88)  2010-04-06
?untitled 257 7 (2.14)  2010-04-09
?ExpirimennalTYTMND 324 8 (3.38)  2010-04-09
?jioejejejoijiojiojioejiejoijeoj 370 14 (3.79)  2010-04-09
?Jake Steele catches a fly ball 310 4 (3.50)  2010-04-10
?Jake Steele forgets the milk 296 3 (3.00)  2010-04-10
?Jake Steele just found his watch 284 4 (3.25)  2010-04-10
?Jake Steele grows up a bit 387 7 (2.86)  2010-04-10
?KRA2008 332 5 (2.60)  2010-04-10
?Fuck the world 708 26 (3.88)  2010-04-16
?a sexual guy 458 10 (2.30)  2010-05-12
?well 263 4 (4.25)  2010-09-03
?gay site you can watch while thinking about stuff 1,474 14 (4.07)  2010-09-13
?site dedicated to great warchief 1,223 12 (3.58)  2010-09-16
?38388 803 8 (3.88)  2010-09-16
?watching the world buzz by 464 4 (3.50)  2010-09-16
?what now 1,372 17 (3.94)  2010-09-16